CST,Max TemperatureF,Mean TemperatureF,Min TemperatureF,Max Dew PointF,MeanDew PointF,Min DewpointF,Max Humidity, Mean Humidity, Min Humidity, Max Sea Level PressureIn, Mean Sea Level PressureIn, Min Sea Level PressureIn, Max VisibilityMiles, Mean VisibilityMiles, Min VisibilityMiles, Max Wind SpeedMPH, Mean Wind SpeedMPH, Max Gust SpeedMPH,PrecipitationIn, CloudCover, Events, WindDirDegrees
2014-2-1,28,23,15,21,16,6,93,80,65,30.34,30.04,29.90,10,8,1,,,,0.00,6,Snow,-1
2014-2-2,16,8,0,5,1,-4,87,74,59,30.46,30.39,30.35,10,10,10,8,5,,0.00,0,,173
2014-2-3,25,12,0,16,6,-5,83,71,60,30.37,30.32,30.26,10,10,10,10,7,,0.00,3,,137
2014-2-4,23,16,8,18,14,3,89,83,72,30.36,30.22,30.11,10,3,0,22,11,32,0.00,8,Fog-Snow,39
2014-2-5,10,4,-5,2,-3,-10,80,71,56,30.73,30.55,30.31,10,8,2,23,17,33,0.00,5,Snow,335
2014-2-6,7,-1,-9,-4,-9,-15,82,70,58,30.72,30.64,30.51,10,10,10,9,6,,0.00,3,,283
2014-2-7,12,3,-6,6,-1,-11,83,68,56,30.50,30.37,30.22,10,10,10,13,5,,0.00,7,Snow,175
2014-2-8,26,20,14,20,15,7,88,81,74,30.23,30.14,30.05,10,8,5,13,7,,0.00,8,Snow,211
2014-2-9,23,16,10,18,8,0,85,73,61,30.49,30.35,30.20,10,7,2,15,9,18,0.00,7,Snow,1
2014-2-10,10,4,-2,0,-3,-6,87,67,56,30.60,30.54,30.50,10,10,10,6,4,,0.00,4,Snow,29
2014-2-11,18,8,-2,7,0,-6,83,67,54,30.54,30.40,30.22,10,10,10,14,6,,0.00,4,,155
2014-2-12,28,20,12,21,16,3,85,74,64,30.20,30.08,29.96,10,8,5,13,7,,0.02,7,Snow,278
2014-2-13,45,34,24,32,27,20,85,75,58,29.94,29.80,29.72,10,9,5,16,8,,0.00,1,,214
2014-2-14,34,26,18,30,20,14,89,76,61,30.14,29.93,29.60,10,10,10,17,11,28,0.00,5,,354
2014-2-15,44,30,16,32,23,13,88,73,55,30.12,29.99,29.88,10,10,9,17,8,18,0.00,3,,207
2014-2-16,35,30,24,28,26,22,92,85,76,30.19,30.08,29.88,10,9,6,16,7,23,0.00,4,,123
2014-2-17,52,41,30,35,28,25,92,66,40,29.98,29.92,29.78,10,9,5,20,11,24,0.01,2,Rain,255
2014-2-18,62,50,37,38,30,26,65,51,39,29.96,29.78,29.66,10,10,10,17,13,24,0.00,0,,239
2014-2-19,51,40,28,37,30,24,86,71,52,30.00,29.85,29.58,10,10,10,14,6,,0.00,3,Rain,138
2014-2-20,41,36,30,37,33,18,100,89,59,29.82,29.54,29.38,10,7,0,33,14,52,0.56,7,Fog-Rain-Snow-Thunderstorm,325
2014-2-21,51,38,26,30,24,18,82,62,44,29.91,29.86,29.79,10,10,10,20,12,,0.00,1,,253
2014-2-22,42,35,28,31,27,18,82,70,60,30.18,30.01,29.89,10,10,10,17,6,23,0.00,3,,42
2014-2-23,30,28,25,19,14,10,75,60,45,30.40,30.33,30.20,10,10,10,12,9,,0.00,7,,18
2014-2-24,30,27,24,20,18,15,81,70,56,30.40,30.33,30.22,10,10,10,12,5,,0.00,7,,76
2014-2-25,25,20,14,20,10,1,88,73,54,30.54,30.41,30.32,10,9,2,20,9,29,0.00,7,Snow,355
2014-2-26,30,16,3,18,7,-3,80,62,43,30.53,30.24,30.00,10,10,10,24,11,29,0.00,0,,271
2014-2-27,25,18,10,15,1,-8,81,49,28,30.23,30.10,29.94,10,10,10,15,9,22,0.00,2,,65
2014-2-28,50,34,18,29,16,3,78,56,34,30.13,29.92,29.80,10,10,10,16,12,25,0.00,4,,121